createdAt,value
2017-08-23T00:02:10.546Z,13.50
2017-08-23T00:07:38.695Z,13.50
2017-08-23T00:13:06.884Z,13.50
2017-08-23T00:18:35.236Z,13.40
2017-08-23T00:24:03.387Z,13.40
2017-08-23T00:29:31.534Z,13.30
2017-08-23T00:34:59.868Z,13.30
2017-08-23T00:40:28.019Z,13.20
2017-08-23T00:45:56.174Z,13.10
2017-08-23T00:51:24.355Z,13.10
2017-08-23T00:56:52.553Z,13.00
2017-08-23T01:02:20.735Z,13.00
2017-08-23T01:07:48.896Z,12.90
2017-08-23T01:13:19.043Z,12.90
2017-08-23T01:18:47.191Z,12.80
2017-08-23T01:24:15.358Z,12.80
2017-08-23T01:29:43.556Z,12.70
2017-08-23T01:35:11.703Z,12.70
2017-08-23T01:40:39.854Z,12.70
2017-08-23T01:46:08.331Z,12.60
2017-08-23T01:51:36.478Z,12.60
2017-08-23T01:57:04.626Z,12.60
2017-08-23T02:02:32.776Z,12.50
2017-08-23T02:08:00.949Z,12.50
2017-08-23T02:13:29.104Z,12.50
2017-08-23T02:18:57.296Z,12.50
2017-08-23T02:24:25.463Z,12.40
2017-08-23T02:29:53.749Z,12.40
2017-08-23T02:35:21.944Z,12.30
2017-08-23T02:40:50.203Z,12.20
2017-08-23T02:46:19.809Z,12.20
2017-08-23T02:51:47.976Z,12.20
2017-08-23T02:57:16.118Z,12.20
2017-08-23T03:02:44.283Z,12.10
2017-08-23T03:08:12.451Z,12.10
2017-08-23T03:13:40.592Z,12.10
2017-08-23T03:19:08.747Z,12.10
2017-08-23T03:24:36.922Z,12.10
2017-08-23T03:30:05.076Z,12.00
2017-08-23T03:35:33.224Z,12.00
2017-08-23T03:41:02.147Z,12.00
2017-08-23T03:46:30.680Z,12.00
2017-08-23T03:51:58.834Z,11.90
2017-08-23T03:57:27.126Z,11.90
2017-08-23T04:02:55.375Z,11.80
2017-08-23T04:08:23.723Z,11.80
2017-08-23T04:13:51.939Z,11.80
2017-08-23T04:19:20.132Z,11.80
2017-08-23T04:24:48.306Z,11.80
2017-08-23T04:30:16.476Z,11.80
2017-08-23T04:35:52.962Z,11.80
2017-08-23T04:41:21.198Z,11.80
2017-08-23T04:46:49.375Z,11.90
2017-08-23T04:52:17.600Z,11.90
2017-08-23T04:57:45.787Z,12.00
2017-08-23T05:03:13.946Z,12.20
2017-08-23T05:08:42.111Z,12.30
2017-08-23T05:14:10.268Z,12.40
2017-08-23T05:19:38.419Z,12.40
2017-08-23T05:25:06.572Z,12.50
2017-08-23T05:30:34.721Z,12.70
2017-08-23T05:36:02.872Z,12.80
2017-08-23T05:41:31.042Z,12.90
2017-08-23T05:46:59.184Z,13.00
2017-08-23T05:52:27.350Z,13.20
2017-08-23T05:57:55.501Z,13.30
2017-08-23T06:03:23.690Z,13.40
2017-08-23T06:08:51.847Z,13.50
2017-08-23T06:14:20.026Z,13.70
2017-08-23T06:19:48.186Z,13.80
2017-08-23T06:25:16.328Z,13.90
2017-08-23T06:30:44.471Z,14.10
2017-08-23T06:36:12.648Z,14.20
2017-08-23T06:41:40.791Z,14.40
2017-08-23T06:47:08.946Z,14.50
2017-08-23T06:52:37.095Z,14.70
2017-08-23T06:58:05.258Z,14.90
2017-08-23T07:03:33.403Z,15.00
2017-08-23T07:09:01.555Z,15.20
2017-08-23T07:14:29.706Z,15.40
2017-08-23T07:19:57.861Z,15.60
2017-08-23T07:25:26.021Z,15.80
2017-08-23T07:30:54.205Z,16.20
2017-08-23T07:36:23.366Z,16.50
2017-08-23T07:41:51.515Z,16.70
2017-08-23T07:47:19.718Z,16.90
2017-08-23T07:52:47.907Z,17.00
2017-08-23T07:58:16.069Z,17.20
2017-08-23T08:03:44.232Z,17.40
2017-08-23T08:09:12.382Z,17.80
2017-08-23T08:14:40.544Z,18.10
2017-08-23T08:20:08.708Z,18.50
2017-08-23T08:25:36.847Z,18.80
2017-08-23T08:31:05.097Z,19.00
2017-08-23T08:36:33.360Z,19.30
2017-08-23T08:42:01.530Z,19.60
2017-08-23T08:47:29.721Z,19.80
2017-08-23T08:52:57.933Z,20.10
2017-08-23T08:58:26.156Z,20.30
2017-08-23T09:03:54.380Z,20.50
2017-08-23T09:09:22.587Z,20.70
2017-08-23T09:14:50.842Z,20.90
2017-08-23T09:20:20.004Z,21.10
2017-08-23T09:25:48.199Z,21.30
2017-08-23T09:31:16.381Z,21.50
2017-08-23T09:36:45.418Z,22.00
2017-08-23T09:42:13.601Z,21.90
2017-08-23T09:47:41.772Z,22.20
2017-08-23T09:53:09.918Z,22.50
2017-08-23T09:58:38.087Z,22.60
2017-08-23T10:04:06.244Z,22.80
2017-08-23T10:09:34.401Z,22.90
2017-08-23T10:15:02.573Z,23.00
2017-08-23T10:20:30.738Z,23.20
2017-08-23T10:25:59.023Z,23.10
2017-08-23T10:31:27.247Z,23.20
2017-08-23T10:36:55.520Z,23.20
2017-08-23T10:42:24.435Z,23.30
2017-08-23T10:47:52.609Z,23.20
2017-08-23T10:53:20.804Z,23.40
2017-08-23T10:58:48.999Z,23.50
2017-08-23T11:04:17.174Z,23.70
2017-08-23T11:09:45.396Z,24.00
2017-08-23T11:15:13.552Z,24.10
2017-08-23T11:20:41.754Z,24.00
2017-08-23T11:26:09.904Z,24.00
2017-08-23T11:31:38.147Z,24.20
2017-08-23T11:37:06.335Z,24.40
2017-08-23T11:42:34.485Z,24.50
2017-08-23T11:48:02.748Z,24.40
2017-08-23T11:53:30.914Z,24.30
2017-08-23T11:58:59.080Z,24.50
2017-08-23T12:04:29.269Z,24.50
2017-08-23T12:09:57.472Z,24.80
2017-08-23T12:15:25.643Z,25.10
2017-08-23T12:20:53.844Z,25.30
2017-08-23T12:26:22.055Z,25.40
2017-08-23T12:31:50.827Z,25.40
2017-08-23T12:37:19.111Z,25.40
2017-08-23T12:42:47.265Z,25.40
2017-08-23T12:48:15.415Z,25.40
2017-08-23T12:53:43.592Z,25.50
2017-08-23T12:59:11.730Z,25.60
2017-08-23T13:04:39.884Z,25.80
2017-08-23T13:10:08.069Z,25.80
2017-08-23T13:15:36.198Z,25.60
2017-08-23T13:21:04.357Z,25.50
2017-08-23T13:26:32.494Z,25.50
2017-08-23T13:32:00.641Z,25.60
2017-08-23T13:37:28.790Z,25.60
2017-08-23T13:42:56.963Z,25.80
2017-08-23T13:48:25.122Z,25.70
2017-08-23T13:53:53.288Z,25.70
2017-08-23T13:59:21.494Z,25.90
2017-08-23T14:04:49.640Z,26.20
2017-08-23T14:10:17.794Z,26.50
2017-08-23T14:15:45.952Z,26.80
2017-08-23T14:21:14.139Z,28.10
2017-08-23T14:26:42.287Z,31.50
2017-08-23T14:32:13.348Z,35.20
2017-08-23T14:37:41.604Z,37.90
2017-08-23T14:43:09.794Z,39.20
2017-08-23T14:48:38.410Z,39.70
2017-08-23T14:54:06.607Z,40.20
2017-08-23T14:59:34.809Z,40.40
2017-08-23T15:05:02.976Z,40.70
2017-08-23T15:10:31.148Z,38.20
2017-08-23T15:16:00.180Z,34.00
2017-08-23T15:21:28.382Z,31.40
2017-08-23T15:26:56.561Z,29.80
2017-08-23T15:32:25.096Z,28.80
2017-08-23T15:37:53.406Z,27.90
2017-08-23T15:43:21.598Z,27.20
2017-08-23T15:48:50.740Z,28.90
2017-08-23T15:54:22.266Z,28.20
2017-08-23T15:59:50.447Z,27.00
2017-08-23T16:05:18.639Z,26.20
2017-08-23T16:10:46.817Z,25.70
2017-08-23T16:16:14.998Z,25.30
2017-08-23T16:21:43.141Z,25.00
2017-08-23T16:27:11.341Z,24.80
2017-08-23T16:32:39.528Z,24.60
2017-08-23T16:38:07.673Z,24.40
2017-08-23T16:43:35.822Z,24.20
2017-08-23T16:49:04.051Z,24.10
2017-08-23T16:54:32.232Z,23.90
2017-08-23T17:00:00.388Z,23.80
2017-08-23T17:05:28.552Z,23.70
2017-08-23T17:10:56.721Z,23.60
2017-08-23T17:16:31.029Z,23.40
2017-08-23T17:21:59.173Z,23.30
2017-08-23T17:27:27.379Z,23.20
2017-08-23T17:32:55.534Z,23.10
2017-08-23T17:38:23.756Z,22.90
2017-08-23T17:43:51.973Z,22.80
2017-08-23T17:49:21.141Z,22.70
2017-08-23T17:54:49.287Z,22.50
2017-08-23T18:00:17.423Z,22.40
2017-08-23T18:05:45.566Z,22.30
2017-08-23T18:11:13.871Z,22.10
2017-08-23T18:16:42.178Z,22.00
2017-08-23T18:22:10.475Z,21.90
2017-08-23T18:27:38.799Z,21.70
2017-08-23T18:33:07.068Z,21.60
2017-08-23T18:38:35.217Z,21.50
2017-08-23T18:44:03.403Z,21.40
2017-08-23T18:49:32.686Z,21.30
2017-08-23T18:55:00.923Z,21.10
2017-08-23T19:00:29.108Z,21.00
2017-08-23T19:05:57.558Z,20.80
2017-08-23T19:11:25.975Z,20.70
2017-08-23T19:16:54.439Z,20.50
2017-08-23T19:22:22.625Z,20.30
2017-08-23T19:27:51.171Z,20.10
2017-08-23T19:33:19.351Z,20.00
2017-08-23T19:38:47.545Z,19.80
2017-08-23T19:44:15.755Z,19.70
2017-08-23T19:49:44.529Z,19.60
2017-08-23T19:55:13.679Z,19.40
2017-08-23T20:00:41.819Z,19.30
2017-08-23T20:06:10.039Z,19.20
2017-08-23T20:11:38.295Z,19.00
2017-08-23T20:17:06.440Z,18.90
2017-08-23T20:22:38.317Z,18.80
2017-08-23T20:28:06.525Z,18.70
2017-08-23T20:33:34.673Z,18.60
2017-08-23T20:39:02.859Z,18.50
2017-08-23T20:44:31.004Z,18.40
2017-08-23T20:49:59.156Z,18.30
2017-08-23T20:55:27.329Z,18.20
2017-08-23T21:00:55.511Z,18.10
2017-08-23T21:06:23.731Z,18.00
2017-08-23T21:11:52.819Z,17.90
2017-08-23T21:17:21.009Z,17.80
2017-08-23T21:22:49.160Z,17.70
2017-08-23T21:28:17.328Z,17.60
2017-08-23T21:33:45.501Z,17.50
2017-08-23T21:39:13.664Z,17.40
2017-08-23T21:44:41.807Z,17.30
2017-08-23T21:50:09.976Z,17.30
2017-08-23T21:55:38.148Z,17.20
2017-08-23T22:01:06.296Z,17.10
2017-08-23T22:06:34.502Z,17.10
2017-08-23T22:12:03.407Z,16.90
2017-08-23T22:17:31.647Z,16.90
2017-08-23T22:22:59.925Z,16.90
2017-08-23T22:28:28.640Z,16.80
2017-08-23T22:33:56.864Z,16.70
2017-08-23T22:39:25.047Z,16.70
2017-08-23T22:44:53.204Z,16.60
2017-08-23T22:50:21.352Z,16.50
2017-08-23T22:55:49.523Z,16.50
2017-08-23T23:01:17.657Z,16.40
2017-08-23T23:06:45.796Z,16.40
2017-08-23T23:12:13.930Z,16.30
2017-08-23T23:17:42.079Z,16.30
2017-08-23T23:23:10.238Z,16.30
2017-08-23T23:28:38.387Z,16.30
2017-08-23T23:34:06.710Z,16.20
2017-08-23T23:39:34.892Z,16.30
2017-08-23T23:45:03.052Z,16.30
2017-08-23T23:50:31.196Z,16.30
2017-08-23T23:55:59.365Z,16.30
